Time;durP1;ratioP1;P1;durP2;ratioP2;P2;SDS_P1;SDS_P2;PMS_P1;PMS_P2;Temp;Humidity;BMP_temperature;BMP_pressure;BME280_temperature;BME280_humidity;BME280_pressure;Samples;Min_cycle;Max_cycle;Signal;HPM_P1;HPM_P2
2023/06/02 00:01:49;;;;;;;17.63;6.28;;;;;;;;;;4821314;29;20117;-63
2023/06/02 00:04:40;;;;;;;13.98;6.22;;;;;;;;;;4801722;29;20063;-62
2023/06/02 00:07:11;;;;;;;22.55;7.15;;;;;;;;;;4765390;30;20051;-63
2023/06/02 00:09:42;;;;;;;15.30;6.32;;;;;;;;;;4768873;30;20067;-63
2023/06/02 00:12:18;;;;;;;14.68;5.35;;;;;;;;;;4788408;29;20539;-62
2023/06/02 00:14:50;;;;;;;14.35;6.18;;;;;;;;;;4801129;29;20054;-62
2023/06/02 00:17:22;;;;;;;17.98;6.45;;;;;;;;;;4801153;29;20597;-62
2023/06/02 00:19:56;;;;;;;14.93;5.53;;;;;;;;;;4802840;29;20055;-62
2023/06/02 00:22:46;;;;;;;12.52;5.57;;;;;;;;;;4817658;29;20058;-63
2023/06/02 00:25:17;;;;;;;13.75;5.55;;;;;;;;;;4809363;29;20059;-64
2023/06/02 00:27:48;;;;;;;13.73;5.85;;;;;;;;;;4845425;29;20076;-64
2023/06/02 00:30:20;;;;;;;17.92;5.70;;;;;;;;;;4875476;29;20568;-63
2023/06/02 00:32:54;;;;;;;16.73;5.65;;;;;;;;;;4884064;29;20040;-63
2023/06/02 00:35:25;;;;;;;17.58;6.78;;;;;;;;;;4883259;29;20171;-63
2023/06/02 00:37:56;;;;;;;14.45;5.90;;;;;;;;;;4848680;29;20076;-65
2023/06/02 00:40:28;;;;;;;17.45;6.28;;;;;;;;;;4817538;29;20045;-63
2023/06/02 00:43:04;;;;;;;12.07;5.35;;;;;;;;;;4779622;29;20410;-63
2023/06/02 00:45:35;;;;;;;14.23;6.85;;;;;;;;;;4853323;29;20453;-63
2023/06/02 00:48:49;;;;;;;15.23;6.00;;;;;;;;;;4873837;29;20056;-63
2023/06/02 00:51:20;;;;;;;14.50;6.60;;;;;;;;;;4857793;29;20419;-64
2023/06/02 00:53:50;;;;;;;13.30;6.00;;;;;;;;;;4880847;29;20049;-63
2023/06/02 00:56:23;;;;;;;18.55;6.80;;;;;;;;;;4896143;29;20057;-63
2023/06/02 00:58:55;;;;;;;18.38;6.97;;;;;;;;;;4880471;29;20057;-64
2023/06/02 01:01:25;;;;;;;18.35;7.00;;;;;;;;;;4867474;29;20098;-64
2023/06/02 01:03:57;;;;;;;16.77;8.50;;;;;;;;;;4880769;29;20057;-63
2023/06/02 01:06:36;;;;;;;17.70;7.70;;;;;;;;;;4880359;29;20068;-63
2023/06/02 01:09:10;;;;;;;24.67;7.47;;;;;;;;;;4844541;29;20530;-63
2023/06/02 01:11:41;;;;;;;16.60;7.38;;;;;;;;;;4861354;29;20208;-63
2023/06/02 01:14:16;;;;;;;22.95;7.90;;;;;;;;;;4880157;29;20056;-63
2023/06/02 01:16:49;;;;;;;14.95;7.45;;;;;;;;;;4841911;29;20062;-63
2023/06/02 01:19:25;;;;;;;;;;;;;;;;;;4880701;29;20059;-63
2023/06/02 01:22:01;;;;;;;17.45;7.55;;;;;;;;;;4885476;29;20439;-63
2023/06/02 01:24:40;;;;;;;15.88;8.00;;;;;;;;;;4895788;29;20545;-63
2023/06/02 01:27:17;;;;;;;14.52;6.93;;;;;;;;;;4931349;29;20047;-63
2023/06/02 01:29:47;;;;;;;14.05;7.18;;;;;;;;;;4918107;29;20055;-63
2023/06/02 01:32:43;;;;;;;16.90;6.70;;;;;;;;;;4952749;28;20505;-63
2023/06/02 01:35:15;;;;;;;11.77;5.68;;;;;;;;;;4971971;28;20507;-64
2023/06/02 01:37:54;;;;;;;12.75;5.78;;;;;;;;;;4956183;28;20066;-63
2023/06/02 01:40:26;;;;;;;19.23;7.03;;;;;;;;;;4933124;29;20067;-63
2023/06/02 01:43:00;;;;;;;12.95;5.93;;;;;;;;;;4905348;29;20527;-64
2023/06/02 01:45:32;;;;;;;13.73;6.10;;;;;;;;;;4937019;29;20543;-63
2023/06/02 01:48:05;;;;;;;15.15;6.55;;;;;;;;;;4867852;29;20056;-64
2023/06/02 01:50:37;;;;;;;15.32;7.53;;;;;;;;;;4917343;29;20060;-63
2023/06/02 01:53:08;;;;;;;14.48;6.25;;;;;;;;;;4898939;29;20055;-63
2023/06/02 01:55:39;;;;;;;19.23;6.55;;;;;;;;;;4914104;29;20056;-64
2023/06/02 01:58:09;;;;;;;16.40;6.22;;;;;;;;;;4899776;29;20060;-63
2023/06/02 02:00:39;;;;;;;13.82;6.03;;;;;;;;;;4895527;29;20493;-63
2023/06/02 02:03:12;;;;;;;12.63;6.18;;;;;;;;;;4879635;29;20061;-63
2023/06/02 02:05:42;;;;;;;13.65;6.15;;;;;;;;;;4892788;29;20065;-64
2023/06/02 02:08:12;;;;;;;14.77;5.80;;;;;;;;;;4863019;29;20046;-64
2023/06/02 02:10:42;;;;;;;14.65;6.00;;;;;;;;;;4859173;29;20061;-63
2023/06/02 02:13:12;;;;;;;13.07;6.35;;;;;;;;;;4858773;29;20518;-64
2023/06/02 02:15:42;;;;;;;12.90;5.85;;;;;;;;;;4858546;29;20061;-63
2023/06/02 02:18:13;;;;;;;13.85;5.60;;;;;;;;;;4873613;29;20068;-63
2023/06/02 02:20:44;;;;;;;12.60;6.15;;;;;;;;;;4886787;29;20177;-63
2023/06/02 02:23:15;;;;;;;13.70;6.22;;;;;;;;;;4896209;29;20044;-62
2023/06/02 02:25:45;;;;;;;13.52;6.07;;;;;;;;;;4905249;29;20405;-63
2023/06/02 02:28:15;;;;;;;11.52;5.88;;;;;;;;;;4924144;29;20062;-63
2023/06/02 02:30:47;;;;;;;13.73;6.05;;;;;;;;;;4945158;28;20062;-62
2023/06/02 02:33:19;;;;;;;11.82;5.30;;;;;;;;;;4978553;28;20057;-63
2023/06/02 02:35:53;;;;;;;14.63;5.65;;;;;;;;;;4981795;28;20069;-63
2023/06/02 02:38:23;;;;;;;14.75;5.85;;;;;;;;;;5040184;28;20055;-63
2023/06/02 02:40:53;;;;;;;13.68;6.20;;;;;;;;;;4991049;28;20042;-63
2023/06/02 02:43:24;;;;;;;14.07;5.97;;;;;;;;;;4971789;28;20561;-62
2023/06/02 02:45:54;;;;;;;13.75;5.97;;;;;;;;;;4971373;28;20558;-63
2023/06/02 02:48:25;;;;;;;13.48;6.50;;;;;;;;;;4952152;29;20047;-64
2023/06/02 02:50:55;;;;;;;14.43;5.75;;;;;;;;;;4952234;29;20054;-63
2023/06/02 02:53:31;;;;;;;12.60;6.28;;;;;;;;;;4920236;28;20051;-63
2023/06/02 02:56:02;;;;;;;14.88;5.28;;;;;;;;;;4894754;29;20052;-63
2023/06/02 02:58:36;;;;;;;16.45;6.20;;;;;;;;;;4857906;29;20053;-63
2023/06/02 03:01:15;;;;;;;13.88;6.00;;;;;;;;;;4857638;29;20065;-63
2023/06/02 03:03:46;;;;;;;11.80;5.40;;;;;;;;;;4843066;29;20089;-63
2023/06/02 03:06:21;;;;;;;13.68;5.78;;;;;;;;;;4804593;29;20054;-63
2023/06/02 03:08:51;;;;;;;12.32;6.03;;;;;;;;;;4820932;29;20066;-63
2023/06/02 03:11:21;;;;;;;12.85;6.18;;;;;;;;;;4835769;29;20065;-63
2023/06/02 03:13:52;;;;;;;13.68;5.93;;;;;;;;;;4857761;29;20053;-63
2023/06/02 03:16:25;;;;;;;13.32;6.38;;;;;;;;;;4875774;29;20061;-63
2023/06/02 03:18:56;;;;;;;19.25;5.75;;;;;;;;;;4881532;29;20509;-63
2023/06/02 03:21:28;;;;;;;14.27;6.40;;;;;;;;;;4894105;29;20469;-62
2023/06/02 03:24:00;;;;;;;12.80;6.40;;;;;;;;;;4909343;29;20061;-63
2023/06/02 03:26:30;;;;;;;14.57;6.55;;;;;;;;;;4906888;29;20102;-65
2023/06/02 03:29:01;;;;;;;12.70;5.78;;;;;;;;;;4913327;29;20059;-63
2023/06/02 03:31:31;;;;;;;13.52;5.53;;;;;;;;;;4894263;29;20061;-63
2023/06/02 03:34:05;;;;;;;11.52;5.78;;;;;;;;;;4868787;29;20064;-63
2023/06/02 03:36:39;;;;;;;15.35;6.60;;;;;;;;;;4875461;29;20521;-63
2023/06/02 03:39:12;;;;;;;16.15;6.07;;;;;;;;;;4871958;29;20057;-63
2023/06/02 03:41:44;;;;;;;28.88;6.00;;;;;;;;;;4838386;29;20050;-63
2023/06/02 03:44:15;;;;;;;14.07;6.20;;;;;;;;;;4816476;29;20077;-63
2023/06/02 03:46:45;;;;;;;16.83;6.20;;;;;;;;;;4802093;29;20062;-63
2023/06/02 03:49:16;;;;;;;16.42;6.72;;;;;;;;;;4832615;29;20075;-63
2023/06/02 03:51:47;;;;;;;12.90;6.53;;;;;;;;;;4830786;29;20427;-63
2023/06/02 03:54:17;;;;;;;14.57;5.78;;;;;;;;;;4875380;29;20061;-63
2023/06/02 03:56:49;;;;;;;10.88;5.55;;;;;;;;;;4870337;29;20064;-63
2023/06/02 03:59:19;;;;;;;15.70;6.10;;;;;;;;;;4905201;29;20075;-63
2023/06/02 04:01:50;;;;;;;14.07;6.18;;;;;;;;;;4901616;29;20048;-64
2023/06/02 04:04:21;;;;;;;13.52;6.32;;;;;;;;;;4931644;29;20056;-63
2023/06/02 04:06:53;;;;;;;18.45;6.10;;;;;;;;;;4920850;29;20512;-63
2023/06/02 04:09:23;;;;;;;12.65;6.15;;;;;;;;;;4931643;29;20559;-63
2023/06/02 04:11:53;;;;;;;15.77;6.20;;;;;;;;;;4912704;29;20060;-63
2023/06/02 04:14:27;;;;;;;12.93;5.70;;;;;;;;;;4878655;29;20137;-63
2023/06/02 04:16:57;;;;;;;13.77;6.05;;;;;;;;;;4883187;29;20056;-63
2023/06/02 04:19:28;;;;;;;13.48;6.32;;;;;;;;;;4847744;29;20057;-64
2023/06/02 04:21:58;;;;;;;19.52;6.38;;;;;;;;;;4856083;29;20053;-63
2023/06/02 04:24:30;;;;;;;11.98;5.88;;;;;;;;;;4841009;29;20405;-63
2023/06/02 04:27:00;;;;;;;14.25;5.80;;;;;;;;;;4837758;29;20178;-63
2023/06/02 04:29:31;;;;;;;14.05;6.25;;;;;;;;;;4785410;29;20059;-63
2023/06/02 04:32:01;;;;;;;14.70;6.40;;;;;;;;;;4792003;29;20070;-63
2023/06/02 04:34:32;;;;;;;14.88;6.35;;;;;;;;;;4794942;29;20428;-63
2023/06/02 04:37:02;;;;;;;13.57;6.38;;;;;;;;;;4783251;29;20071;-63
2023/06/02 04:39:35;;;;;;;13.25;6.97;;;;;;;;;;4748142;29;20054;-64
2023/06/02 04:42:06;;;;;;;13.70;5.97;;;;;;;;;;4782692;29;20056;-63
2023/06/02 04:44:39;;;;;;;17.83;7.05;;;;;;;;;;4783320;29;20073;-64
2023/06/02 04:47:09;;;;;;;14.57;6.75;;;;;;;;;;4788357;29;20052;-63
2023/06/02 04:49:40;;;;;;;13.77;5.68;;;;;;;;;;4791813;29;20131;-63
2023/06/02 04:52:10;;;;;;;18.90;6.22;;;;;;;;;;4801903;29;20058;-63
2023/06/02 04:54:43;;;;;;;12.57;6.45;;;;;;;;;;4819740;29;20059;-63
2023/06/02 04:57:13;;;;;;;17.42;6.65;;;;;;;;;;4815159;29;20059;-64
2023/06/02 04:59:44;;;;;;;18.13;6.20;;;;;;;;;;4764834;29;20084;-63
2023/06/02 05:02:15;;;;;;;15.27;5.75;;;;;;;;;;4801250;29;20599;-64
2023/06/02 05:04:45;;;;;;;15.80;5.57;;;;;;;;;;4801148;29;20055;-63
2023/06/02 05:07:15;;;;;;;14.88;6.13;;;;;;;;;;4792007;29;20070;-63
2023/06/02 05:09:45;;;;;;;12.18;6.05;;;;;;;;;;4810476;29;20046;-63
2023/06/02 05:12:16;;;;;;;13.32;5.95;;;;;;;;;;4804082;29;20530;-63
2023/06/02 05:14:46;;;;;;;14.10;5.25;;;;;;;;;;4819491;29;20094;-63
2023/06/02 05:17:26;;;;;;;;;;;;;;;;;;4819968;29;20454;-64
2023/06/02 05:20:00;;;;;;;13.63;5.32;;;;;;;;;;4866659;29;20399;-63
2023/06/02 05:22:31;;;;;;;12.32;5.43;;;;;;;;;;4870947;29;20124;-63
2023/06/02 05:25:03;;;;;;;12.23;5.13;;;;;;;;;;4882112;29;20076;-63
2023/06/02 05:27:33;;;;;;;11.32;5.47;;;;;;;;;;4911754;29;20048;-63
2023/06/02 05:30:04;;;;;;;16.40;6.50;;;;;;;;;;4894666;29;20048;-63
2023/06/02 05:32:35;;;;;;;17.08;6.95;;;;;;;;;;4915353;29;20059;-63
2023/06/02 05:35:08;;;;;;;13.27;5.32;;;;;;;;;;4885210;29;20635;-63
2023/06/02 05:37:38;;;;;;;13.38;6.40;;;;;;;;;;4896089;29;20061;-63
2023/06/02 05:40:10;;;;;;;14.68;5.90;;;;;;;;;;4859186;29;20045;-63
2023/06/02 05:42:44;;;;;;;13.82;6.20;;;;;;;;;;4877229;29;20064;-64
2023/06/02 05:45:15;;;;;;;19.55;6.35;;;;;;;;;;4877925;29;20068;-63
2023/06/02 05:47:51;;;;;;;14.15;6.10;;;;;;;;;;4877174;29;20410;-63
2023/06/02 05:50:23;;;;;;;14.45;6.10;;;;;;;;;;4890407;29;20056;-63
2023/06/02 05:52:53;;;;;;;11.63;5.53;;;;;;;;;;4896208;29;20765;-64
2023/06/02 05:55:24;;;;;;;12.95;6.40;;;;;;;;;;4880629;29;20049;-63
2023/06/02 05:57:55;;;;;;;14.73;6.63;;;;;;;;;;4870208;29;20065;-63
2023/06/02 06:00:28;;;;;;;16.27;6.05;;;;;;;;;;4910704;29;20060;-63
2023/06/02 06:03:00;;;;;;;16.50;5.70;;;;;;;;;;4914525;29;20393;-64
2023/06/02 06:05:36;;;;;;;15.15;5.38;;;;;;;;;;4914731;29;20060;-63
2023/06/02 06:08:07;;;;;;;11.77;5.95;;;;;;;;;;4914317;29;20052;-64
2023/06/02 06:10:38;;;;;;;13.98;5.72;;;;;;;;;;4896064;29;20532;-63
2023/06/02 06:13:09;;;;;;;15.98;5.78;;;;;;;;;;4877448;29;20062;-63
2023/06/02 06:15:41;;;;;;;12.23;5.90;;;;;;;;;;4888835;29;20421;-63
2023/06/02 06:18:11;;;;;;;14.13;6.15;;;;;;;;;;4876901;29;20056;-63
2023/06/02 06:20:43;;;;;;;11.90;5.78;;;;;;;;;;4877175;29;20061;-63
2023/06/02 06:23:14;;;;;;;12.60;5.90;;;;;;;;;;4861030;29;20060;-63
2023/06/02 06:25:45;;;;;;;17.08;5.90;;;;;;;;;;4839286;29;20052;-63
2023/06/02 06:28:17;;;;;;;19.83;7.30;;;;;;;;;;4850793;29;20057;-63
2023/06/02 06:30:49;;;;;;;18.35;6.47;;;;;;;;;;4839620;29;20065;-63
2023/06/02 06:33:20;;;;;;;15.10;5.68;;;;;;;;;;4829038;29;20065;-63
2023/06/02 06:35:51;;;;;;;14.60;6.75;;;;;;;;;;4825695;29;20538;-64
2023/06/02 06:38:22;;;;;;;18.58;6.10;;;;;;;;;;4855079;29;20057;-64
2023/06/02 06:40:52;;;;;;;14.35;6.00;;;;;;;;;;4849875;29;20065;-64
2023/06/02 06:43:22;;;;;;;18.50;5.65;;;;;;;;;;4867435;29;20533;-63
2023/06/02 06:45:59;;;;;;;15.85;5.93;;;;;;;;;;4916767;29;20446;-64
2023/06/02 06:48:29;;;;;;;13.75;5.43;;;;;;;;;;4917280;29;20062;-63
2023/06/02 06:51:02;;;;;;;15.32;5.72;;;;;;;;;;4933233;29;20087;-63
2023/06/02 06:53:32;;;;;;;15.48;6.22;;;;;;;;;;4933350;29;20058;-63
2023/06/02 06:56:02;;;;;;;15.27;6.07;;;;;;;;;;4922276;29;20068;-63
2023/06/02 06:58:33;;;;;;;15.77;5.68;;;;;;;;;;4914425;29;20060;-64
2023/06/02 07:01:03;;;;;;;13.13;6.30;;;;;;;;;;4913959;29;20059;-63
2023/06/02 07:03:33;;;;;;;16.92;6.10;;;;;;;;;;4908635;29;20060;-63
2023/06/02 07:06:04;;;;;;;13.57;5.45;;;;;;;;;;4930745;28;20050;-63
2023/06/02 07:08:36;;;;;;;13.52;5.55;;;;;;;;;;4935237;29;20056;-63
2023/06/02 07:11:06;;;;;;;11.85;5.40;;;;;;;;;;4933034;29;20515;-63
2023/06/02 07:13:38;;;;;;;13.98;5.88;;;;;;;;;;4932908;29;20072;-63
2023/06/02 07:16:11;;;;;;;13.52;5.03;;;;;;;;;;4973895;28;20106;-63
2023/06/02 07:18:41;;;;;;;12.40;5.18;;;;;;;;;;4952155;28;20051;-63
2023/06/02 07:21:11;;;;;;;13.52;6.10;;;;;;;;;;4973912;28;20384;-63
2023/06/02 07:23:41;;;;;;;14.65;5.22;;;;;;;;;;4970300;28;20053;-63
2023/06/02 07:26:12;;;;;;;11.32;4.82;;;;;;;;;;4966000;28;20497;-66
2023/06/02 07:28:43;;;;;;;14.32;5.55;;;;;;;;;;4977163;28;20045;-63
2023/06/02 07:31:13;;;;;;;12.13;5.22;;;;;;;;;;5009980;28;20058;-63
2023/06/02 07:33:45;;;;;;;13.18;5.10;;;;;;;;;;5009976;28;20065;-63
2023/06/02 07:36:16;;;;;;;;;;;;;;;;;;5010747;28;20050;-63
2023/06/02 07:38:46;;;;;;;13.95;5.43;;;;;;;;;;5022675;28;19921;-63
2023/06/02 07:41:17;;;;;;;12.75;5.30;;;;;;;;;;5030077;28;20057;-63
2023/06/02 07:43:47;;;;;;;11.60;5.05;;;;;;;;;;5029497;28;20406;-63
2023/06/02 07:46:18;;;;;;;11.63;5.18;;;;;;;;;;5029565;28;20065;-63
2023/06/02 07:48:48;;;;;;;11.07;5.30;;;;;;;;;;4996750;28;20049;-63
2023/06/02 07:51:18;;;;;;;16.05;5.68;;;;;;;;;;4980531;28;20064;-65
2023/06/02 07:53:48;;;;;;;12.63;5.50;;;;;;;;;;5028926;28;20049;-62
2023/06/02 07:56:19;;;;;;;10.80;4.70;;;;;;;;;;5029215;28;20065;-64
2023/06/02 07:58:50;;;;;;;17.40;5.22;;;;;;;;;;5029143;28;20045;-64
2023/06/02 08:01:20;;;;;;;13.68;4.82;;;;;;;;;;5029367;28;20045;-63
2023/06/02 08:03:50;;;;;;;11.60;5.78;;;;;;;;;;5029031;28;20064;-66
2023/06/02 08:06:21;;;;;;;17.20;5.65;;;;;;;;;;5040413;28;20068;-63
2023/06/02 08:08:51;;;;;;;11.43;5.38;;;;;;;;;;5051633;28;20041;-63
2023/06/02 08:11:22;;;;;;;11.63;5.15;;;;;;;;;;5049481;28;20049;-63
2023/06/02 08:13:53;;;;;;;11.63;4.75;;;;;;;;;;5051578;28;20060;-64
2023/06/02 08:16:24;;;;;;;13.95;5.60;;;;;;;;;;5051559;28;20392;-63
2023/06/02 08:18:59;;;;;;;14.88;5.35;;;;;;;;;;5016145;28;20254;-63
2023/06/02 08:21:31;;;;;;;14.75;5.32;;;;;;;;;;5051666;28;20058;-63
2023/06/02 08:24:02;;;;;;;11.02;4.70;;;;;;;;;;5051502;28;20044;-63
2023/06/02 08:26:34;;;;;;;13.93;5.35;;;;;;;;;;5051457;28;20048;-63
2023/06/02 08:29:04;;;;;;;13.35;5.32;;;;;;;;;;5032583;28;20052;-63
2023/06/02 08:31:35;;;;;;;13.13;4.72;;;;;;;;;;5051101;28;20064;-64
2023/06/02 08:34:08;;;;;;;10.57;5.10;;;;;;;;;;5049326;28;20072;-63
2023/06/02 08:36:38;;;;;;;12.57;5.35;;;;;;;;;;5051133;28;20067;-63
2023/06/02 08:39:09;;;;;;;12.30;5.20;;;;;;;;;;5016328;28;20061;-63
2023/06/02 08:41:39;;;;;;;11.88;4.65;;;;;;;;;;5051114;28;20048;-63
2023/06/02 08:44:10;;;;;;;13.50;4.72;;;;;;;;;;5016156;28;20073;-64
2023/06/02 08:46:40;;;;;;;12.20;5.55;;;;;;;;;;5048855;28;20056;-63
2023/06/02 08:49:15;;;;;;;12.20;5.00;;;;;;;;;;5051041;28;20468;-63
2023/06/02 08:51:50;;;;;;;10.07;4.68;;;;;;;;;;5051278;28;20044;-63
2023/06/02 08:54:21;;;;;;;9.25;4.68;;;;;;;;;;5049834;28;20040;-66
2023/06/02 08:56:57;;;;;;;9.98;4.63;;;;;;;;;;5032789;28;20057;-63
2023/06/02 08:59:28;;;;;;;10.52;4.85;;;;;;;;;;5015836;28;20072;-63
2023/06/02 09:02:00;;;;;;;9.55;4.28;;;;;;;;;;5032622;28;20068;-65
2023/06/02 09:04:31;;;;;;;8.95;4.30;;;;;;;;;;5018061;28;20409;-64
2023/06/02 09:07:13;;;;;;;10.98;4.38;;;;;;;;;;5052457;28;20053;-63
2023/06/02 09:09:47;;;;;;;10.20;4.63;;;;;;;;;;5019686;28;20065;-63
2023/06/02 09:12:19;;;;;;;9.45;4.60;;;;;;;;;;4971965;28;20045;-63
2023/06/02 09:15:08;;;;;;;12.23;5.00;;;;;;;;;;5003915;28;20410;-62
2023/06/02 09:17:38;;;;;;;10.15;4.80;;;;;;;;;;4988503;28;20061;-61
2023/06/02 09:20:11;;;;;;;9.35;4.28;;;;;;;;;;5054863;28;20048;-62
2023/06/02 09:22:57;;;;;;;9.13;4.07;;;;;;;;;;5054710;28;20041;-62
2023/06/02 09:25:30;;;;;;;11.85;4.25;;;;;;;;;;5036422;28;20433;-63
2023/06/02 09:28:01;;;;;;;16.10;4.82;;;;;;;;;;5015506;28;20049;-63
2023/06/02 09:30:32;;;;;;;11.10;4.53;;;;;;;;;;5032270;28;20045;-62
2023/06/02 09:33:10;;;;;;;9.18;4.78;;;;;;;;;;5031960;28;20545;-62
2023/06/02 09:35:45;;;;;;;10.32;4.55;;;;;;;;;;4999290;28;20524;-61
2023/06/02 09:38:16;;;;;;;12.02;4.43;;;;;;;;;;5031681;28;20548;-63
2023/06/02 09:40:47;;;;;;;10.02;4.25;;;;;;;;;;5032000;28;20058;-63
2023/06/02 09:43:30;;;;;;;11.35;4.78;;;;;;;;;;5031543;28;20072;-62
2023/06/02 09:46:03;;;;;;;9.07;3.95;;;;;;;;;;5031807;28;20061;-62
2023/06/02 09:48:35;;;;;;;10.82;4.90;;;;;;;;;;5031799;28;20057;-63
2023/06/02 09:51:22;;;;;;;9.05;4.20;;;;;;;;;;5031763;28;20053;-63
2023/06/02 09:53:53;;;;;;;9.30;4.57;;;;;;;;;;5031351;28;20057;-62
2023/06/02 09:56:23;;;;;;;8.60;4.18;;;;;;;;;;5031744;28;20057;-63
2023/06/02 09:58:54;;;;;;;9.50;4.03;;;;;;;;;;4982582;28;20053;-62
2023/06/02 10:01:25;;;;;;;9.10;4.28;;;;;;;;;;4998385;28;20414;-62
2023/06/02 10:03:55;;;;;;;8.80;4.60;;;;;;;;;;4999304;28;20133;-62
2023/06/02 10:06:35;;;;;;;9.85;4.63;;;;;;;;;;4982298;28;20550;-61
2023/06/02 10:09:25;;;;;;;10.15;4.45;;;;;;;;;;5053419;28;20141;-62
2023/06/02 10:12:17;;;;;;;9.98;4.20;;;;;;;;;;5053260;28;20477;-62
2023/06/02 10:15:22;;;;;;;11.60;4.50;;;;;;;;;;5053118;28;20512;-62
2023/06/02 10:18:13;;;;;;;11.35;4.38;;;;;;;;;;5051602;28;20076;-64
2023/06/02 10:21:08;;;;;;;9.65;4.70;;;;;;;;;;5051318;28;20049;-62
2023/06/02 10:23:46;;;;;;;10.98;4.43;;;;;;;;;;5050556;28;20073;-62
2023/06/02 10:26:35;;;;;;;9.32;4.00;;;;;;;;;;5017264;28;20071;-61
2023/06/02 10:29:08;;;;;;;9.88;4.10;;;;;;;;;;5050617;28;20049;-62
2023/06/02 10:31:39;;;;;;;13.55;3.97;;;;;;;;;;5051210;28;20159;-61
2023/06/02 10:34:35;;;;;;;8.32;4.38;;;;;;;;;;5018389;28;20049;-61
2023/06/02 10:37:15;;;;;;;9.85;4.22;;;;;;;;;;5033590;28;20056;-64
2023/06/02 10:39:45;;;;;;;10.27;4.63;;;;;;;;;;5050652;28;20440;-62
2023/06/02 10:42:16;;;;;;;10.75;5.10;;;;;;;;;;5016530;28;20142;-64
2023/06/02 10:44:51;;;;;;;14.07;5.30;;;;;;;;;;5050318;28;20049;-62
2023/06/02 10:47:21;;;;;;;12.43;4.93;;;;;;;;;;5049736;28;20053;-63
2023/06/02 10:50:04;;;;;;;11.25;5.20;;;;;;;;;;5050227;28;20045;-62
2023/06/02 10:53:01;;;;;;;9.93;4.35;;;;;;;;;;5050348;28;20048;-63
2023/06/02 10:55:33;;;;;;;9.07;4.57;;;;;;;;;;5030109;28;20072;-64
2023/06/02 10:58:05;;;;;;;10.60;4.72;;;;;;;;;;5030210;28;20056;-64
2023/06/02 11:00:35;;;;;;;11.57;4.68;;;;;;;;;;5041475;28;20060;-65
2023/06/02 11:03:17;;;;;;;9.45;4.38;;;;;;;;;;4980747;28;20054;-64
2023/06/02 11:05:54;;;;;;;11.80;5.07;;;;;;;;;;4996911;28;20611;-63
2023/06/02 11:08:28;;;;;;;14.82;5.20;;;;;;;;;;4980966;28;20046;-64
2023/06/02 11:11:01;;;;;;;13.48;5.68;;;;;;;;;;5030489;28;20422;-61
2023/06/02 11:13:50;;;;;;;13.02;5.72;;;;;;;;;;5013700;28;20053;-62
2023/06/02 11:16:21;;;;;;;12.88;6.68;;;;;;;;;;5030090;28;20497;-62
2023/06/02 11:18:51;;;;;;;13.50;6.15;;;;;;;;;;5013951;28;20057;-62
2023/06/02 11:21:25;;;;;;;16.27;6.43;;;;;;;;;;5029919;28;20088;-63
2023/06/02 11:23:56;;;;;;;13.00;6.75;;;;;;;;;;5029703;28;20609;-62
2023/06/02 11:26:26;;;;;;;13.05;6.10;;;;;;;;;;5029525;28;20065;-62
2023/06/02 11:29:13;;;;;;;10.48;5.57;;;;;;;;;;4996585;28;20069;-62
2023/06/02 11:31:48;;;;;;;12.60;6.00;;;;;;;;;;5030201;28;20461;-63
2023/06/02 11:34:19;;;;;;;14.68;6.05;;;;;;;;;;5045196;28;20052;-63
2023/06/02 11:36:49;;;;;;;13.15;5.97;;;;;;;;;;5049456;28;20045;-63
2023/06/02 11:39:20;;;;;;;15.00;6.18;;;;;;;;;;5086112;28;20066;-64
2023/06/02 11:41:58;;;;;;;19.65;7.60;;;;;;;;;;5091929;28;20052;-64
2023/06/02 11:44:29;;;;;;;12.15;6.18;;;;;;;;;;5082310;28;20047;-65
2023/06/02 11:46:59;;;;;;;16.48;7.95;;;;;;;;;;5079362;28;20404;-64
2023/06/02 11:49:38;;;;;;;18.83;8.93;;;;;;;;;;5071769;28;20049;-64
2023/06/02 11:52:10;;;;;;;14.02;6.90;;;;;;;;;;5029182;28;20068;-63
2023/06/02 11:54:50;;;;;;;17.10;7.20;;;;;;;;;;4995500;28;20045;-64
2023/06/02 11:57:32;;;;;;;15.85;7.57;;;;;;;;;;5029288;28;20508;-63
2023/06/02 12:00:16;;;;;;;16.65;7.47;;;;;;;;;;5029252;28;20449;-64
2023/06/02 12:02:51;;;;;;;18.23;7.80;;;;;;;;;;5029225;28;20045;-62
2023/06/02 12:05:32;;;;;;;15.40;7.70;;;;;;;;;;5029016;28;20064;-63
2023/06/02 12:08:08;;;;;;;16.40;7.30;;;;;;;;;;5029059;28;20053;-63
2023/06/02 12:10:39;;;;;;;12.52;6.38;;;;;;;;;;5028730;28;20533;-63
2023/06/02 12:13:31;;;;;;;18.33;7.78;;;;;;;;;;4995819;28;20045;-64
2023/06/02 12:16:21;;;;;;;12.43;6.68;;;;;;;;;;4979902;28;20168;-64
2023/06/02 12:18:56;;;;;;;15.85;7.15;;;;;;;;;;5028617;28;20128;-64
2023/06/02 12:21:28;;;;;;;11.80;5.90;;;;;;;;;;5028470;28;20072;-63
2023/06/02 12:24:00;;;;;;;16.08;7.45;;;;;;;;;;5028813;28;20057;-64
2023/06/02 12:26:43;;;;;;;14.82;7.00;;;;;;;;;;5028288;28;20068;-64
2023/06/02 12:29:13;;;;;;;20.38;5.47;;;;;;;;;;5020917;28;20431;-63
2023/06/02 12:31:43;;;;;;;18.45;7.53;;;;;;;;;;5019039;28;20048;-63
2023/06/02 12:34:15;;;;;;;11.88;6.22;;;;;;;;;;5071135;28;20041;-63
2023/06/02 12:36:45;;;;;;;17.90;6.85;;;;;;;;;;5019260;28;20068;-64
2023/06/02 12:39:16;;;;;;;17.02;7.72;;;;;;;;;;5070581;28;20064;-64
2023/06/02 12:41:46;;;;;;;17.45;6.32;;;;;;;;;;5036323;28;20516;-64
2023/06/02 12:44:18;;;;;;;25.20;7.55;;;;;;;;;;5029165;28;20044;-64
2023/06/02 12:46:48;;;;;;;19.48;8.43;;;;;;;;;;5048043;28;20045;-64
2023/06/02 12:49:18;;;;;;;23.83;7.43;;;;;;;;;;5048253;28;20065;-63
2023/06/02 12:51:48;;;;;;;21.00;7.80;;;;;;;;;;4998979;28;20064;-63
2023/06/02 12:54:19;;;;;;;17.55;6.22;;;;;;;;;;5031526;28;20060;-64
2023/06/02 12:56:49;;;;;;;12.32;5.95;;;;;;;;;;5048006;28;20051;-63
2023/06/02 12:59:21;;;;;;;12.52;5.45;;;;;;;;;;5014857;28;20593;-63
2023/06/02 13:01:51;;;;;;;13.20;5.15;;;;;;;;;;5031999;28;20064;-64
2023/06/02 13:04:21;;;;;;;9.27;5.03;;;;;;;;;;5031605;28;20052;-63
2023/06/02 13:06:52;;;;;;;12.75;5.18;;;;;;;;;;5048246;28;20053;-64
2023/06/02 13:09:22;;;;;;;11.85;5.47;;;;;;;;;;4998943;28;20060;-63
2023/06/02 13:11:53;;;;;;;12.50;5.88;;;;;;;;;;4999193;28;20065;-63
2023/06/02 13:14:24;;;;;;;12.85;4.90;;;;;;;;;;5028214;28;20049;-64
2023/06/02 13:16:55;;;;;;;13.65;6.20;;;;;;;;;;5027956;28;20166;-63
2023/06/02 13:19:25;;;;;;;14.70;5.28;;;;;;;;;;4979247;28;20413;-63
2023/06/02 13:22:15;;;;;;;11.05;5.90;;;;;;;;;;4995147;28;20065;-65
2023/06/02 13:24:46;;;;;;;16.90;9.27;;;;;;;;;;5000839;28;20058;-64
2023/06/02 13:27:17;;;;;;;11.48;6.57;;;;;;;;;;4975453;28;20058;-63
2023/06/02 13:29:58;;;;;;;21.48;10.43;;;;;;;;;;5008192;28;20081;-65
2023/06/02 13:32:28;;;;;;;18.90;10.95;;;;;;;;;;5008383;28;20054;-64
2023/06/02 13:34:59;;;;;;;26.88;17.05;;;;;;;;;;5008397;28;20061;-64
2023/06/02 13:37:30;;;;;;;32.38;18.55;;;;;;;;;;4988103;28;20054;-63
2023/06/02 13:40:00;;;;;;;9.57;5.53;;;;;;;;;;4988194;28;20498;-63
2023/06/02 13:42:32;;;;;;;13.05;6.55;;;;;;;;;;4988483;28;20062;-63
2023/06/02 13:45:03;;;;;;;10.30;5.95;;;;;;;;;;4972037;28;20070;-64
2023/06/02 13:47:34;;;;;;;11.27;5.70;;;;;;;;;;4956322;28;20063;-63
2023/06/02 13:50:04;;;;;;;12.55;6.07;;;;;;;;;;4988590;28;20062;-63
2023/06/02 13:52:35;;;;;;;10.85;5.47;;;;;;;;;;4959708;28;20126;-63
2023/06/02 13:55:08;;;;;;;7.95;4.65;;;;;;;;;;4992458;28;20074;-64
2023/06/02 13:57:39;;;;;;;9.63;5.35;;;;;;;;;;4991797;28;20191;-64
2023/06/02 14:00:10;;;;;;;8.32;4.88;;;;;;;;;;4960120;28;20406;-63
2023/06/02 14:02:40;;;;;;;26.35;14.85;;;;;;;;;;5012720;28;20049;-63
2023/06/02 14:05:10;;;;;;;12.85;5.63;;;;;;;;;;5031447;28;20055;-63
2023/06/02 14:07:40;;;;;;;9.57;4.95;;;;;;;;;;4984819;28;20046;-64
2023/06/02 14:10:11;;;;;;;8.45;4.25;;;;;;;;;;4953618;28;20064;-63
2023/06/02 14:12:41;;;;;;;22.50;13.18;;;;;;;;;;5000409;28;20065;-63
2023/06/02 14:15:13;;;;;;;;;;;;;;;;;;4996569;28;20541;-63
2023/06/02 14:17:43;;;;;;;15.35;4.53;;;;;;;;;;4975599;28;19922;-64
2023/06/02 14:20:14;;;;;;;5.80;2.60;;;;;;;;;;4991874;28;20490;-63
2023/06/02 14:22:44;;;;;;;6.60;3.35;;;;;;;;;;5010684;28;20065;-63
2023/06/02 14:25:15;;;;;;;4.93;2.45;;;;;;;;;;5011449;28;20054;-67
2023/06/02 14:27:45;;;;;;;3.70;1.40;;;;;;;;;;5011286;28;20061;-63
2023/06/02 14:30:15;;;;;;;4.40;2.10;;;;;;;;;;4978711;28;20050;-64
2023/06/02 14:32:46;;;;;;;5.20;1.83;;;;;;;;;;4978559;28;20054;-64
2023/06/02 14:35:16;;;;;;;6.80;3.60;;;;;;;;;;4995126;28;20054;-63
2023/06/02 14:37:46;;;;;;;6.95;3.70;;;;;;;;;;4994785;28;20046;-64
2023/06/02 14:40:16;;;;;;;3.15;1.70;;;;;;;;;;5011311;28;20057;-64
2023/06/02 14:42:47;;;;;;;3.10;1.50;;;;;;;;;;5011211;28;20042;-65
2023/06/02 14:45:20;;;;;;;2.28;1.20;;;;;;;;;;5011177;28;20050;-65
2023/06/02 14:47:50;;;;;;;6.13;2.30;;;;;;;;;;5030726;28;20061;-61
2023/06/02 14:50:20;;;;;;;2.80;1.40;;;;;;;;;;5031019;28;20088;-61
2023/06/02 14:52:51;;;;;;;8.68;5.28;;;;;;;;;;5002711;28;20057;-62
2023/06/02 14:55:22;;;;;;;3.35;1.60;;;;;;;;;;5070448;28;20068;-62
2023/06/02 14:57:52;;;;;;;3.40;1.67;;;;;;;;;;5070479;28;20052;-62
2023/06/02 15:00:22;;;;;;;4.85;1.75;;;;;;;;;;5070196;28;20063;-62
2023/06/02 15:02:52;;;;;;;5.53;2.22;;;;;;;;;;5070363;28;20095;-61
2023/06/02 15:05:23;;;;;;;2.60;0.90;;;;;;;;;;5053034;28;20043;-61
2023/06/02 15:07:57;;;;;;;1.52;0.85;;;;;;;;;;5070436;28;20048;-62